sensor_id;sensor_type;location;lat;lon;timestamp;P1;durP1;ratioP1;P2;durP2;ratioP2
49820;SDS011;36893;52.520;13.450;2022-10-16T00:04:18;4.50;;;1.50;;
49820;SDS011;36893;52.520;13.450;2022-10-16T00:14:19;2.13;;;1.20;;
49820;SDS011;36893;52.520;13.450;2022-10-16T00:24:19;4.15;;;1.00;;
49820;SDS011;36893;52.520;13.450;2022-10-16T00:34:20;2.17;;;0.97;;
49820;SDS011;36893;52.520;13.450;2022-10-16T00:44:41;3.60;;;1.20;;
49820;SDS011;36893;52.520;13.450;2022-10-16T00:54:52;1.95;;;1.00;;
49820;SDS011;36893;52.520;13.450;2022-10-16T01:04:54;3.05;;;1.45;;
49820;SDS011;36893;52.520;13.450;2022-10-16T01:14:57;2.72;;;1.15;;
49820;SDS011;36893;52.520;13.450;2022-10-16T01:25:05;2.22;;;1.13;;
49820;SDS011;36893;52.520;13.450;2022-10-16T01:35:22;1.85;;;1.00;;
49820;SDS011;36893;52.520;13.450;2022-10-16T01:45:27;2.25;;;1.02;;
49820;SDS011;36893;52.520;13.450;2022-10-16T01:55:32;1.77;;;0.88;;
49820;SDS011;36893;52.520;13.450;2022-10-16T02:05:48;1.58;;;0.95;;
49820;SDS011;36893;52.520;13.450;2022-10-16T02:15:53;1.60;;;1.00;;
49820;SDS011;36893;52.520;13.450;2022-10-16T02:25:54;0.93;;;0.57;;
49820;SDS011;36893;52.520;13.450;2022-10-16T02:35:56;1.55;;;0.88;;
49820;SDS011;36893;52.520;13.450;2022-10-16T02:45:57;1.50;;;0.80;;
49820;SDS011;36893;52.520;13.450;2022-10-16T02:55:59;1.60;;;0.70;;
49820;SDS011;36893;52.520;13.450;2022-10-16T03:05:59;1.00;;;0.57;;
49820;SDS011;36893;52.520;13.450;2022-10-16T03:16:00;1.33;;;0.83;;
49820;SDS011;36893;52.520;13.450;2022-10-16T03:26:01;2.10;;;0.90;;
49820;SDS011;36893;52.520;13.450;2022-10-16T03:36:01;1.40;;;0.73;;
49820;SDS011;36893;52.520;13.450;2022-10-16T03:46:02;0.83;;;0.53;;
49820;SDS011;36893;52.520;13.450;2022-10-16T03:56:03;1.20;;;0.73;;
49820;SDS011;36893;52.520;13.450;2022-10-16T04:06:03;1.20;;;0.63;;
49820;SDS011;36893;52.520;13.450;2022-10-16T04:16:04;1.93;;;0.80;;
49820;SDS011;36893;52.520;13.450;2022-10-16T04:26:05;2.00;;;0.80;;
49820;SDS011;36893;52.520;13.450;2022-10-16T04:36:07;0.93;;;0.60;;
49820;SDS011;36893;52.520;13.450;2022-10-16T04:46:09;1.13;;;0.77;;
49820;SDS011;36893;52.520;13.450;2022-10-16T04:56:10;0.80;;;0.63;;
49820;SDS011;36893;52.520;13.450;2022-10-16T05:06:11;0.57;;;0.57;;
49820;SDS011;36893;52.520;13.450;2022-10-16T05:16:11;1.40;;;0.70;;
49820;SDS011;36893;52.520;13.450;2022-10-16T05:26:12;4.30;;;1.77;;
49820;SDS011;36893;52.520;13.450;2022-10-16T05:36:13;5.93;;;1.63;;
49820;SDS011;36893;52.520;13.450;2022-10-16T05:46:20;3.70;;;1.55;;
49820;SDS011;36893;52.520;13.450;2022-10-16T05:56:21;6.80;;;2.25;;
49820;SDS011;36893;52.520;13.450;2022-10-16T06:06:23;6.90;;;2.00;;
49820;SDS011;36893;52.520;13.450;2022-10-16T06:16:27;8.23;;;1.85;;
49820;SDS011;36893;52.520;13.450;2022-10-16T06:26:29;6.78;;;1.65;;
49820;SDS011;36893;52.520;13.450;2022-10-16T06:36:31;5.90;;;1.83;;
49820;SDS011;36893;52.520;13.450;2022-10-16T06:46:32;8.38;;;1.77;;
49820;SDS011;36893;52.520;13.450;2022-10-16T06:56:33;6.45;;;1.80;;
49820;SDS011;36893;52.520;13.450;2022-10-16T07:06:34;2.92;;;1.50;;
49820;SDS011;36893;52.520;13.450;2022-10-16T07:26:38;3.20;;;1.52;;
49820;SDS011;36893;52.520;13.450;2022-10-16T07:36:40;4.65;;;1.75;;
49820;SDS011;36893;52.520;13.450;2022-10-16T07:46:44;4.95;;;1.70;;
49820;SDS011;36893;52.520;13.450;2022-10-16T07:56:48;3.70;;;1.50;;
49820;SDS011;36893;52.520;13.450;2022-10-16T08:06:49;4.47;;;1.55;;
49820;SDS011;36893;52.520;13.450;2022-10-16T08:16:50;3.58;;;1.27;;
49820;SDS011;36893;52.520;13.450;2022-10-16T08:26:53;2.92;;;1.40;;
49820;SDS011;36893;52.520;13.450;2022-10-16T08:36:54;4.83;;;1.60;;
49820;SDS011;36893;52.520;13.450;2022-10-16T08:57:24;2.30;;;1.38;;
49820;SDS011;36893;52.520;13.450;2022-10-16T09:07:36;4.55;;;1.40;;
49820;SDS011;36893;52.520;13.450;2022-10-16T09:28:35;0.73;;;0.73;;
49820;SDS011;36893;52.520;13.450;2022-10-16T09:38:36;3.55;;;0.88;;
49820;SDS011;36893;52.520;13.450;2022-10-16T09:48:39;1.42;;;0.90;;
49820;SDS011;36893;52.520;13.450;2022-10-16T09:58:49;1.77;;;0.93;;
49820;SDS011;36893;52.520;13.450;2022-10-16T10:08:59;1.77;;;0.82;;
49820;SDS011;36893;52.520;13.450;2022-10-16T10:19:22;1.63;;;1.00;;
49820;SDS011;36893;52.520;13.450;2022-10-16T10:29:47;0.95;;;0.77;;
49820;SDS011;36893;52.520;13.450;2022-10-16T10:40:39;2.95;;;0.90;;
49820;SDS011;36893;52.520;13.450;2022-10-16T10:51:22;1.88;;;0.88;;
49820;SDS011;36893;52.520;13.450;2022-10-16T11:02:10;1.77;;;0.90;;
49820;SDS011;36893;52.520;13.450;2022-10-16T11:12:34;2.22;;;0.98;;
49820;SDS011;36893;52.520;13.450;2022-10-16T11:22:47;2.33;;;0.90;;
49820;SDS011;36893;52.520;13.450;2022-10-16T11:43:31;1.55;;;0.90;;
49820;SDS011;36893;52.520;13.450;2022-10-16T11:53:52;1.75;;;0.75;;
49820;SDS011;36893;52.520;13.450;2022-10-16T12:04:17;1.05;;;0.70;;
49820;SDS011;36893;52.520;13.450;2022-10-16T12:14:37;1.42;;;1.00;;
49820;SDS011;36893;52.520;13.450;2022-10-16T12:24:41;3.20;;;0.85;;
49820;SDS011;36893;52.520;13.450;2022-10-16T12:34:43;2.17;;;0.70;;
49820;SDS011;36893;52.520;13.450;2022-10-16T12:44:44;1.17;;;0.75;;
49820;SDS011;36893;52.520;13.450;2022-10-16T12:54:45;1.02;;;0.50;;
49820;SDS011;36893;52.520;13.450;2022-10-16T13:36:35;2.30;;;0.45;;
49820;SDS011;36893;52.520;13.450;2022-10-16T13:46:46;1.05;;;0.60;;
49820;SDS011;36893;52.520;13.450;2022-10-16T13:56:46;0.65;;;0.47;;
49820;SDS011;36893;52.520;13.450;2022-10-16T14:06:48;1.20;;;0.70;;
49820;SDS011;36893;52.520;13.450;2022-10-16T14:26:51;1.45;;;0.57;;
49820;SDS011;36893;52.520;13.450;2022-10-16T14:36:55;0.30;;;0.30;;
49820;SDS011;36893;52.520;13.450;2022-10-16T14:46:56;1.52;;;0.60;;
49820;SDS011;36893;52.520;13.450;2022-10-16T14:56:59;0.30;;;0.30;;
49820;SDS011;36893;52.520;13.450;2022-10-16T15:07:00;0.30;;;0.27;;
49820;SDS011;36893;52.520;13.450;2022-10-16T15:17:00;0.43;;;0.40;;
49820;SDS011;36893;52.520;13.450;2022-10-16T15:27:01;1.13;;;0.60;;
49820;SDS011;36893;52.520;13.450;2022-10-16T15:37:02;1.27;;;0.53;;
49820;SDS011;36893;52.520;13.450;2022-10-16T15:47:03;0.65;;;0.40;;
49820;SDS011;36893;52.520;13.450;2022-10-16T15:57:04;0.93;;;0.50;;
49820;SDS011;36893;52.520;13.450;2022-10-16T16:07:04;1.97;;;0.70;;
49820;SDS011;36893;52.520;13.450;2022-10-16T16:17:07;2.15;;;0.70;;
49820;SDS011;36893;52.520;13.450;2022-10-16T16:27:08;1.37;;;0.90;;
49820;SDS011;36893;52.520;13.450;2022-10-16T16:37:09;2.25;;;1.00;;
49820;SDS011;36893;52.520;13.450;2022-10-16T16:47:09;1.50;;;1.00;;
49820;SDS011;36893;52.520;13.450;2022-10-16T16:57:10;3.23;;;1.40;;
49820;SDS011;36893;52.520;13.450;2022-10-16T17:07:11;1.87;;;0.73;;
49820;SDS011;36893;52.520;13.450;2022-10-16T17:17:11;2.57;;;1.23;;
49820;SDS011;36893;52.520;13.450;2022-10-16T17:27:12;4.53;;;1.33;;
49820;SDS011;36893;52.520;13.450;2022-10-16T17:37:13;2.83;;;1.33;;
49820;SDS011;36893;52.520;13.450;2022-10-16T17:47:13;3.77;;;1.70;;
49820;SDS011;36893;52.520;13.450;2022-10-16T17:57:14;4.57;;;2.17;;
49820;SDS011;36893;52.520;13.450;2022-10-16T18:07:15;7.30;;;1.93;;
49820;SDS011;36893;52.520;13.450;2022-10-16T18:17:16;5.55;;;1.80;;
49820;SDS011;36893;52.520;13.450;2022-10-16T18:27:18;4.97;;;1.42;;
49820;SDS011;36893;52.520;13.450;2022-10-16T18:37:19;3.17;;;1.53;;
49820;SDS011;36893;52.520;13.450;2022-10-16T18:47:20;3.13;;;1.30;;
49820;SDS011;36893;52.520;13.450;2022-10-16T18:57:21;10.90;;;2.03;;
49820;SDS011;36893;52.520;13.450;2022-10-16T19:07:21;4.57;;;1.90;;
49820;SDS011;36893;52.520;13.450;2022-10-16T19:17:22;4.70;;;1.60;;
49820;SDS011;36893;52.520;13.450;2022-10-16T19:27:23;5.23;;;2.13;;
49820;SDS011;36893;52.520;13.450;2022-10-16T19:37:23;4.93;;;2.37;;
49820;SDS011;36893;52.520;13.450;2022-10-16T19:47:26;4.43;;;1.50;;
49820;SDS011;36893;52.520;13.450;2022-10-16T19:57:26;4.37;;;1.53;;
49820;SDS011;36893;52.520;13.450;2022-10-16T20:07:27;3.80;;;1.67;;
49820;SDS011;36893;52.520;13.450;2022-10-16T20:17:28;2.93;;;1.43;;
49820;SDS011;36893;52.520;13.450;2022-10-16T20:27:28;9.00;;;2.00;;
49820;SDS011;36893;52.520;13.450;2022-10-16T20:37:30;3.58;;;1.73;;
49820;SDS011;36893;52.520;13.450;2022-10-16T20:47:30;4.17;;;1.97;;
49820;SDS011;36893;52.520;13.450;2022-10-16T20:57:31;3.00;;;1.70;;
49820;SDS011;36893;52.520;13.450;2022-10-16T21:07:32;5.13;;;2.20;;
49820;SDS011;36893;52.520;13.450;2022-10-16T21:17:32;4.33;;;2.03;;
49820;SDS011;36893;52.520;13.450;2022-10-16T21:27:36;3.57;;;2.00;;
49820;SDS011;36893;52.520;13.450;2022-10-16T21:37:38;5.15;;;2.05;;
49820;SDS011;36893;52.520;13.450;2022-10-16T21:47:39;5.30;;;2.13;;
49820;SDS011;36893;52.520;13.450;2022-10-16T21:57:39;6.87;;;2.70;;
49820;SDS011;36893;52.520;13.450;2022-10-16T22:07:40;3.80;;;1.97;;
49820;SDS011;36893;52.520;13.450;2022-10-16T22:17:40;5.00;;;1.97;;
49820;SDS011;36893;52.520;13.450;2022-10-16T22:27:41;9.43;;;2.67;;
49820;SDS011;36893;52.520;13.450;2022-10-16T22:37:42;4.73;;;2.20;;
49820;SDS011;36893;52.520;13.450;2022-10-16T22:47:42;4.27;;;2.10;;
49820;SDS011;36893;52.520;13.450;2022-10-16T22:57:43;3.60;;;2.30;;
49820;SDS011;36893;52.520;13.450;2022-10-16T23:07:44;4.75;;;2.45;;
49820;SDS011;36893;52.520;13.450;2022-10-16T23:17:45;4.85;;;2.55;;
49820;SDS011;36893;52.520;13.450;2022-10-16T23:27:46;6.67;;;2.40;;
49820;SDS011;36893;52.520;13.450;2022-10-16T23:37:46;4.77;;;2.37;;
49820;SDS011;36893;52.520;13.450;2022-10-16T23:47:47;5.77;;;2.43;;
49820;SDS011;36893;52.520;13.450;2022-10-16T23:57:47;5.17;;;2.47;;
